Main page
METAR-TAF:

METAR-TAF

Airports :

Niamey, Niger

Diori Hamani International Airport

latitude: 13-29N, longitude: 002-10E, elevation: 223 m

Current weather observation

The report was made 55 minutes ago, at 08:00 UTC
Wind 11 kt from the West/Southwest
Temperature 33°C
Humidity 41%
Pressure 1011 hPa
Visibility: 8000 m

METAR: DRRN 300800Z 24011KT 8000 NSC 33/18 Q1011 NOSIG

Time: 09:55 (08:55 UTC)

Forecast

The report was made 3 hours and 55 minutes ago, at 05:00 UTC
Forecast valid from 30 at 06 UTC to 01 at 12 UTC
Wind 8 kt from the West/Southwest
Visibility: 8000 m
Probability 40%
from 30 at 15 UTC to 30 at 20 UTC
Wind 18 kt from variable directions
Visibility: 3000 m
Few clouds at a height of 4500 ft, Cumulonimbus.
Blowing dust, thunderstorm

TAF: DRRN 300500Z 3006/0112 24008KT 8000 NSC PROB40 3015/3020 VRB18KT 3000 BLDU TS FEW045CB

Weather observations and forecasts of more than 4000 airports (METAR and TAF reports).

The available stations are represented by yellow and red dots on the map.

Hover mouse over dot to see the name of the station.

Then click to see weather observations and forecasts.

To change the map : click on the green buttons with a black cross to zoom in, on the green button with a dash to zoom out, or on the green arrows for adjacent maps.


METAR-TAF: